sensor_id;sensor_type;location;lat;lon;timestamp;pressure;altitude;pressure_sealevel;temperature;humidity
26563;BME280;14217;50.986;5.826;2023-03-04T00:01:31;102006.94;;;16.51;38.56
26563;BME280;14217;50.986;5.826;2023-03-04T00:06:34;102002.63;;;16.46;38.45
26563;BME280;14217;50.986;5.826;2023-03-04T00:11:36;101994.63;;;16.50;38.47
26563;BME280;14217;50.986;5.826;2023-03-04T00:16:38;102004.19;;;16.57;38.29
26563;BME280;14217;50.986;5.826;2023-03-04T00:21:40;102003.41;;;16.52;38.30
26563;BME280;14217;50.986;5.826;2023-03-04T00:26:42;101994.72;;;16.43;38.27
26563;BME280;14217;50.986;5.826;2023-03-04T00:31:45;101982.03;;;16.64;37.96
26563;BME280;14217;50.986;5.826;2023-03-04T00:36:47;101969.63;;;16.66;38.07
26563;BME280;14217;50.986;5.826;2023-03-04T00:41:49;101966.03;;;16.70;38.00
26563;BME280;14217;50.986;5.826;2023-03-04T00:46:51;101968.81;;;16.61;38.07
26563;BME280;14217;50.986;5.826;2023-03-04T00:51:53;101966.97;;;16.67;37.96
26563;BME280;14217;50.986;5.826;2023-03-04T00:56:55;101975.56;;;16.79;37.76
26563;BME280;14217;50.986;5.826;2023-03-04T01:01:57;101967.84;;;16.68;37.76
26563;BME280;14217;50.986;5.826;2023-03-04T01:06:59;101969.75;;;16.60;37.91
26563;BME280;14217;50.986;5.826;2023-03-04T01:12:01;101971.38;;;16.67;38.10
26563;BME280;14217;50.986;5.826;2023-03-04T01:17:03;101965.91;;;16.76;37.78
26563;BME280;14217;50.986;5.826;2023-03-04T01:22:05;101965.97;;;16.73;37.78
26563;BME280;14217;50.986;5.826;2023-03-04T01:27:07;101959.78;;;16.74;37.99
26563;BME280;14217;50.986;5.826;2023-03-04T01:32:09;101954.63;;;16.66;37.95
26563;BME280;14217;50.986;5.826;2023-03-04T01:37:11;101949.34;;;16.65;38.03
26563;BME280;14217;50.986;5.826;2023-03-04T01:42:21;101945.69;;;16.72;37.77
26563;BME280;14217;50.986;5.826;2023-03-04T01:47:27;101941.25;;;16.74;37.77
26563;BME280;14217;50.986;5.826;2023-03-04T01:52:30;101936.13;;;16.65;37.77
26563;BME280;14217;50.986;5.826;2023-03-04T01:57:34;101931.84;;;16.59;38.06
26563;BME280;14217;50.986;5.826;2023-03-04T02:02:36;101936.13;;;16.65;37.96
26563;BME280;14217;50.986;5.826;2023-03-04T02:07:38;101932.56;;;16.67;38.09
26563;BME280;14217;50.986;5.826;2023-03-04T02:12:40;101933.44;;;16.66;38.11
26563;BME280;14217;50.986;5.826;2023-03-04T02:17:43;101915.75;;;16.70;37.84
26563;BME280;14217;50.986;5.826;2023-03-04T02:22:56;101912.34;;;16.63;38.18
26563;BME280;14217;50.986;5.826;2023-03-04T02:27:59;101910.56;;;16.64;37.76
26563;BME280;14217;50.986;5.826;2023-03-04T02:33:01;101895.47;;;16.69;38.01
26563;BME280;14217;50.986;5.826;2023-03-04T02:38:03;101890.88;;;16.77;37.74
26563;BME280;14217;50.986;5.826;2023-03-04T02:43:05;101899.88;;;16.70;37.81
26563;BME280;14217;50.986;5.826;2023-03-04T02:48:07;101892.88;;;16.67;37.91
26563;BME280;14217;50.986;5.826;2023-03-04T02:53:10;101887.53;;;16.69;38.12
26563;BME280;14217;50.986;5.826;2023-03-04T02:58:12;101883.09;;;16.70;37.98
26563;BME280;14217;50.986;5.826;2023-03-04T03:03:14;101882.44;;;16.58;38.30
26563;BME280;14217;50.986;5.826;2023-03-04T03:08:17;101882.28;;;16.67;38.00
26563;BME280;14217;50.986;5.826;2023-03-04T03:13:18;101877.84;;;16.68;37.90
26563;BME280;14217;50.986;5.826;2023-03-04T03:18:21;101880.38;;;16.74;38.03
26563;BME280;14217;50.986;5.826;2023-03-04T03:23:22;101884.84;;;16.72;37.99
26563;BME280;14217;50.986;5.826;2023-03-04T03:28:25;101869.19;;;16.60;38.21
26563;BME280;14217;50.986;5.826;2023-03-04T03:33:26;101863.66;;;16.72;38.04
26563;BME280;14217;50.986;5.826;2023-03-04T03:38:29;101864.53;;;16.73;37.98
26563;BME280;14217;50.986;5.826;2023-03-04T03:43:31;101863.75;;;16.67;38.25
26563;BME280;14217;50.986;5.826;2023-03-04T03:48:33;101865.47;;;16.69;37.84
26563;BME280;14217;50.986;5.826;2023-03-04T03:53:35;101862.03;;;16.65;38.13
26563;BME280;14217;50.986;5.826;2023-03-04T03:58:37;101873.63;;;16.59;38.35
26563;BME280;14217;50.986;5.826;2023-03-04T04:03:40;101869.09;;;16.64;38.08
26563;BME280;14217;50.986;5.826;2023-03-04T04:08:42;101867.38;;;16.63;38.26
26563;BME280;14217;50.986;5.826;2023-03-04T04:13:44;101865.75;;;16.55;38.51
26563;BME280;14217;50.986;5.826;2023-03-04T04:18:46;101865.56;;;16.65;38.09
26563;BME280;14217;50.986;5.826;2023-03-04T04:23:48;101866.41;;;16.67;38.21
26563;BME280;14217;50.986;5.826;2023-03-04T04:28:50;101869.06;;;16.66;38.05
26563;BME280;14217;50.986;5.826;2023-03-04T04:33:51;101862.06;;;16.63;38.42
26563;BME280;14217;50.986;5.826;2023-03-04T04:38:54;101869.06;;;16.66;38.15
26563;BME280;14217;50.986;5.826;2023-03-04T04:43:56;101869.81;;;16.73;37.90
26563;BME280;14217;50.986;5.826;2023-03-04T04:48:58;101872.59;;;16.65;38.09
26563;BME280;14217;50.986;5.826;2023-03-04T04:54:01;101878.00;;;16.60;38.37
26563;BME280;14217;50.986;5.826;2023-03-04T04:59:04;101877.13;;;16.60;38.56
26563;BME280;14217;50.986;5.826;2023-03-04T05:04:08;101880.66;;;16.59;38.29
26563;BME280;14217;50.986;5.826;2023-03-04T05:09:11;101890.25;;;16.66;38.24
26563;BME280;14217;50.986;5.826;2023-03-04T05:14:13;101880.44;;;16.70;38.21
26563;BME280;14217;50.986;5.826;2023-03-04T05:19:15;101881.47;;;16.64;38.37
26563;BME280;14217;50.986;5.826;2023-03-04T05:24:17;101884.13;;;16.62;38.39
26563;BME280;14217;50.986;5.826;2023-03-04T05:29:19;101880.66;;;16.59;38.34
26563;BME280;14217;50.986;5.826;2023-03-04T05:34:21;101886.88;;;16.58;38.37
26563;BME280;14217;50.986;5.826;2023-03-04T05:39:23;101878.81;;;16.64;38.18
26563;BME280;14217;50.986;5.826;2023-03-04T05:44:25;101884.09;;;16.64;38.34
26563;BME280;14217;50.986;5.826;2023-03-04T05:49:27;101875.44;;;16.57;38.43
26563;BME280;14217;50.986;5.826;2023-03-04T05:54:29;101885.78;;;16.68;38.23
26563;BME280;14217;50.986;5.826;2023-03-04T05:59:31;101888.59;;;16.59;38.64
26563;BME280;14217;50.986;5.826;2023-03-04T06:04:33;101889.31;;;16.67;38.31
26563;BME280;14217;50.986;5.826;2023-03-04T06:09:35;101889.50;;;16.59;38.46
26563;BME280;14217;50.986;5.826;2023-03-04T06:14:37;101885.13;;;16.57;38.68
26563;BME280;14217;50.986;5.826;2023-03-04T06:19:39;101893.00;;;16.60;38.59
26563;BME280;14217;50.986;5.826;2023-03-04T06:24:44;101894.63;;;16.67;38.20
26563;BME280;14217;50.986;5.826;2023-03-04T06:29:46;101902.66;;;16.61;38.31
26563;BME280;14217;50.986;5.826;2023-03-04T06:34:48;101913.34;;;16.58;38.48
26563;BME280;14217;50.986;5.826;2023-03-04T06:39:50;101912.31;;;16.65;38.51
26563;BME280;14217;50.986;5.826;2023-03-04T06:44:52;101918.50;;;16.65;38.42
26563;BME280;14217;50.986;5.826;2023-03-04T06:49:54;101915.88;;;16.62;38.55
26563;BME280;14217;50.986;5.826;2023-03-04T06:54:56;101920.31;;;16.62;38.76
26563;BME280;14217;50.986;5.826;2023-03-04T06:59:58;101920.34;;;16.60;38.59
26563;BME280;14217;50.986;5.826;2023-03-04T07:05:00;101924.75;;;16.61;38.46
26563;BME280;14217;50.986;5.826;2023-03-04T07:10:02;101933.75;;;16.51;39.96
26563;BME280;14217;50.986;5.826;2023-03-04T07:15:05;101937.66;;;16.30;40.62
26563;BME280;14217;50.986;5.826;2023-03-04T07:20:08;101935.13;;;16.24;40.65
26563;BME280;14217;50.986;5.826;2023-03-04T07:25:10;101950.22;;;16.17;40.31
26563;BME280;14217;50.986;5.826;2023-03-04T07:30:12;101949.19;;;16.26;39.93
26563;BME280;14217;50.986;5.826;2023-03-04T07:35:14;101958.84;;;16.29;39.45
26563;BME280;14217;50.986;5.826;2023-03-04T07:40:16;101956.22;;;16.27;39.45
26563;BME280;14217;50.986;5.826;2023-03-04T07:45:19;101955.59;;;16.11;39.38
26563;BME280;14217;50.986;5.826;2023-03-04T07:50:21;101946.97;;;16.51;38.23
26563;BME280;14217;50.986;5.826;2023-03-04T07:55:24;101959.66;;;16.32;39.04
26563;BME280;14217;50.986;5.826;2023-03-04T08:00:26;101954.31;;;16.35;39.12
26563;BME280;14217;50.986;5.826;2023-03-04T08:05:28;101954.19;;;16.41;38.89
26563;BME280;14217;50.986;5.826;2023-03-04T08:10:30;101959.09;;;16.63;38.00
26563;BME280;14217;50.986;5.826;2023-03-04T08:15:32;101968.28;;;16.42;38.57
26563;BME280;14217;50.986;5.826;2023-03-04T08:20:35;101971.88;;;16.39;38.41
26563;BME280;14217;50.986;5.826;2023-03-04T08:25:39;101974.47;;;16.42;38.05
26563;BME280;14217;50.986;5.826;2023-03-04T08:30:42;101971.34;;;16.69;37.53
26563;BME280;14217;50.986;5.826;2023-03-04T08:35:44;101987.34;;;16.61;37.68
26563;BME280;14217;50.986;5.826;2023-03-04T08:40:51;101988.88;;;16.24;39.37
26563;BME280;14217;50.986;5.826;2023-03-04T08:45:54;101987.47;;;16.55;39.31
26563;BME280;14217;50.986;5.826;2023-03-04T08:50:56;101989.88;;;16.69;38.92
26563;BME280;14217;50.986;5.826;2023-03-04T08:55:58;101983.66;;;16.70;38.37
26563;BME280;14217;50.986;5.826;2023-03-04T09:01:00;101989.03;;;16.65;38.65
26563;BME280;14217;50.986;5.826;2023-03-04T09:06:04;101979.28;;;16.69;38.22
26563;BME280;14217;50.986;5.826;2023-03-04T09:11:06;101979.19;;;16.73;38.20
26563;BME280;14217;50.986;5.826;2023-03-04T09:16:12;101990.69;;;16.72;38.46
26563;BME280;14217;50.986;5.826;2023-03-04T09:21:15;101982.59;;;16.81;38.30
26563;BME280;14217;50.986;5.826;2023-03-04T09:26:22;101995.13;;;16.70;38.58
26563;BME280;14217;50.986;5.826;2023-03-04T09:31:26;101986.16;;;16.79;38.19
26563;BME280;14217;50.986;5.826;2023-03-04T09:36:28;101980.03;;;16.75;38.17
26563;BME280;14217;50.986;5.826;2023-03-04T09:41:48;101973.84;;;16.76;37.93
26563;BME280;14217;50.986;5.826;2023-03-04T09:46:51;101974.31;;;16.50;39.12
26563;BME280;14217;50.986;5.826;2023-03-04T09:57:29;101966.06;;;16.69;39.00
26563;BME280;14217;50.986;5.826;2023-03-04T10:19:22;101949.97;;;16.79;38.21
26563;BME280;14217;50.986;5.826;2023-03-04T10:24:27;101947.31;;;16.82;38.09
26563;BME280;14217;50.986;5.826;2023-03-04T10:29:30;101953.56;;;16.75;38.06
26563;BME280;14217;50.986;5.826;2023-03-04T10:34:33;101947.31;;;16.81;37.88
26563;BME280;14217;50.986;5.826;2023-03-04T10:39:38;101948.94;;;16.88;37.91
26563;BME280;14217;50.986;5.826;2023-03-04T10:44:57;101946.53;;;16.74;38.27
26563;BME280;14217;50.986;5.826;2023-03-04T10:50:02;101943.81;;;16.80;38.01
26563;BME280;14217;50.986;5.826;2023-03-04T10:55:15;101952.59;;;16.79;37.73
26563;BME280;14217;50.986;5.826;2023-03-04T11:00:26;101942.94;;;16.78;37.92
26563;BME280;14217;50.986;5.826;2023-03-04T11:05:31;101934.16;;;16.76;37.83
26563;BME280;14217;50.986;5.826;2023-03-04T11:21:00;101913.03;;;16.73;37.86
26563;BME280;14217;50.986;5.826;2023-03-04T11:26:04;101911.19;;;16.78;37.95
26563;BME280;14217;50.986;5.826;2023-03-04T11:42:01;101909.53;;;16.24;40.81
26563;BME280;14217;50.986;5.826;2023-03-04T11:47:14;101902.31;;;16.34;40.65
26563;BME280;14217;50.986;5.826;2023-03-04T11:52:59;101891.78;;;16.31;40.62
26563;BME280;14217;50.986;5.826;2023-03-04T12:08:43;101875.81;;;16.36;41.22
26563;BME280;14217;50.986;5.826;2023-03-04T12:14:01;101869.88;;;16.23;43.41
26563;BME280;14217;50.986;5.826;2023-03-04T12:19:28;101873.94;;;16.42;43.32
26563;BME280;14217;50.986;5.826;2023-03-04T12:35:40;101836.13;;;16.37;46.03
26563;BME280;14217;50.986;5.826;2023-03-04T12:41:19;101834.44;;;16.33;45.61
26563;BME280;14217;50.986;5.826;2023-03-04T12:52:09;101821.22;;;16.33;44.76
26563;BME280;14217;50.986;5.826;2023-03-04T12:57:17;101821.94;;;16.41;44.60
26563;BME280;14217;50.986;5.826;2023-03-04T13:12:59;101796.31;;;16.43;46.12
26563;BME280;14217;50.986;5.826;2023-03-04T13:18:34;101797.19;;;16.44;46.18
26563;BME280;14217;50.986;5.826;2023-03-04T13:23:36;101791.84;;;16.47;46.30
26563;BME280;14217;50.986;5.826;2023-03-04T13:28:38;101799.75;;;16.49;46.91
26563;BME280;14217;50.986;5.826;2023-03-04T13:38:57;101778.50;;;16.53;47.09
26563;BME280;14217;50.986;5.826;2023-03-04T13:44:01;101782.06;;;16.51;46.99
26563;BME280;14217;50.986;5.826;2023-03-04T13:49:16;101771.44;;;16.52;47.06
26563;BME280;14217;50.986;5.826;2023-03-04T13:54:32;101774.06;;;16.54;47.39
26563;BME280;14217;50.986;5.826;2023-03-04T13:59:40;101767.00;;;16.53;47.39
26563;BME280;14217;50.986;5.826;2023-03-04T14:04:45;101766.06;;;16.57;47.82
26563;BME280;14217;50.986;5.826;2023-03-04T14:15:03;101752.78;;;16.60;47.34
26563;BME280;14217;50.986;5.826;2023-03-04T14:25:27;101740.50;;;16.56;45.91
26563;BME280;14217;50.986;5.826;2023-03-04T14:30:29;101732.50;;;16.59;43.46
26563;BME280;14217;50.986;5.826;2023-03-04T14:35:48;101722.97;;;16.52;42.84
26563;BME280;14217;50.986;5.826;2023-03-04T14:41:15;101726.47;;;16.52;42.19
26563;BME280;14217;50.986;5.826;2023-03-04T14:46:18;101723.84;;;16.51;41.71
26563;BME280;14217;50.986;5.826;2023-03-04T14:51:46;101711.44;;;16.54;41.49
26563;BME280;14217;50.986;5.826;2023-03-04T14:56:48;101708.69;;;16.59;41.68
26563;BME280;14217;50.986;5.826;2023-03-04T15:01:50;101702.63;;;16.54;41.33
26563;BME280;14217;50.986;5.826;2023-03-04T15:06:52;101692.03;;;16.55;41.50
26563;BME280;14217;50.986;5.826;2023-03-04T15:12:02;101693.69;;;16.59;41.19
26563;BME280;14217;50.986;5.826;2023-03-04T15:17:35;101693.63;;;16.61;40.97
26563;BME280;14217;50.986;5.826;2023-03-04T15:27:50;101678.81;;;16.54;41.31
26563;BME280;14217;50.986;5.826;2023-03-04T15:32:55;101680.53;;;16.55;41.12
26563;BME280;14217;50.986;5.826;2023-03-04T15:37:58;101678.00;;;16.52;40.83
26563;BME280;14217;50.986;5.826;2023-03-04T15:43:02;101672.69;;;16.52;40.72
26563;BME280;14217;50.986;5.826;2023-03-04T15:48:07;101673.38;;;16.60;40.41
26563;BME280;14217;50.986;5.826;2023-03-04T15:58:25;101679.78;;;16.51;40.58
26563;BME280;14217;50.986;5.826;2023-03-04T16:03:28;101678.84;;;16.52;40.49
26563;BME280;14217;50.986;5.826;2023-03-04T16:08:30;101662.91;;;16.55;40.20
26563;BME280;14217;50.986;5.826;2023-03-04T16:13:32;101672.84;;;16.45;40.50
26563;BME280;14217;50.986;5.826;2023-03-04T16:18:34;101665.66;;;16.51;40.31
26563;BME280;14217;50.986;5.826;2023-03-04T16:23:41;101668.09;;;16.60;39.77
26563;BME280;14217;50.986;5.826;2023-03-04T16:28:43;101657.56;;;16.57;39.95
26563;BME280;14217;50.986;5.826;2023-03-04T16:33:46;101659.56;;;16.49;39.86
26563;BME280;14217;50.986;5.826;2023-03-04T16:38:49;101655.97;;;16.51;39.98
26563;BME280;14217;50.986;5.826;2023-03-04T16:43:51;101660.13;;;16.61;39.55
26563;BME280;14217;50.986;5.826;2023-03-04T16:48:56;101658.31;;;16.63;39.49
26563;BME280;14217;50.986;5.826;2023-03-04T16:53:58;101660.22;;;16.57;39.88
26563;BME280;14217;50.986;5.826;2023-03-04T16:59:00;101659.50;;;16.50;39.82
26563;BME280;14217;50.986;5.826;2023-03-04T17:04:02;101664.84;;;16.49;39.69
26563;BME280;14217;50.986;5.826;2023-03-04T17:09:06;101661.94;;;16.59;39.60
26563;BME280;14217;50.986;5.826;2023-03-04T17:14:08;101658.53;;;16.54;40.78
26563;BME280;14217;50.986;5.826;2023-03-04T17:19:10;101653.44;;;16.46;40.98
26563;BME280;14217;50.986;5.826;2023-03-04T17:24:15;101657.78;;;16.49;41.07
26563;BME280;14217;50.986;5.826;2023-03-04T17:29:17;101663.91;;;16.51;40.57
26563;BME280;14217;50.986;5.826;2023-03-04T17:34:18;101660.19;;;16.58;40.40
26563;BME280;14217;50.986;5.826;2023-03-04T17:39:21;101665.31;;;16.66;40.00
26563;BME280;14217;50.986;5.826;2023-03-04T17:44:23;101667.03;;;16.67;39.85
26563;BME280;14217;50.986;5.826;2023-03-04T17:49:25;101673.38;;;16.61;40.12
26563;BME280;14217;50.986;5.826;2023-03-04T17:54:27;101676.94;;;16.59;40.01
26563;BME280;14217;50.986;5.826;2023-03-04T17:59:30;101684.09;;;16.55;39.82
26563;BME280;14217;50.986;5.826;2023-03-04T18:04:33;101691.81;;;16.64;39.57
26563;BME280;14217;50.986;5.826;2023-03-04T18:09:36;101694.56;;;16.60;39.58
26563;BME280;14217;50.986;5.826;2023-03-04T18:14:38;101693.63;;;16.61;39.53
26563;BME280;14217;50.986;5.826;2023-03-04T18:19:40;101686.50;;;16.64;39.67
26563;BME280;14217;50.986;5.826;2023-03-04T18:24:42;101689.69;;;16.41;42.24
26563;BME280;14217;50.986;5.826;2023-03-04T18:29:44;101689.06;;;16.29;43.45
26563;BME280;14217;50.986;5.826;2023-03-04T18:34:46;101691.47;;;16.39;42.30
26563;BME280;14217;50.986;5.826;2023-03-04T18:39:48;101679.78;;;16.51;41.76
26563;BME280;14217;50.986;5.826;2023-03-04T18:44:50;101676.16;;;16.55;41.02
26563;BME280;14217;50.986;5.826;2023-03-04T18:49:52;101668.28;;;16.51;44.98
26563;BME280;14217;50.986;5.826;2023-03-04T18:54:54;101674.78;;;16.37;43.68
26563;BME280;14217;50.986;5.826;2023-03-04T19:00:00;101675.69;;;16.36;45.70
26563;BME280;14217;50.986;5.826;2023-03-04T19:05:07;101672.38;;;16.26;43.99
26563;BME280;14217;50.986;5.826;2023-03-04T19:10:11;101676.91;;;16.20;44.26
26563;BME280;14217;50.986;5.826;2023-03-04T19:15:14;101683.09;;;16.19;43.93
26563;BME280;14217;50.986;5.826;2023-03-04T19:20:16;101683.06;;;16.22;43.59
26563;BME280;14217;50.986;5.826;2023-03-04T19:25:18;101683.94;;;16.21;43.35
26563;BME280;14217;50.986;5.826;2023-03-04T19:30:20;101690.28;;;16.14;43.30
26563;BME280;14217;50.986;5.826;2023-03-04T19:35:22;101692.88;;;16.15;42.77
26563;BME280;14217;50.986;5.826;2023-03-04T19:40:24;101686.59;;;16.21;42.57
26563;BME280;14217;50.986;5.826;2023-03-04T19:45:28;101690.16;;;16.18;42.46
26563;BME280;14217;50.986;5.826;2023-03-04T19:50:31;101692.69;;;16.24;42.02
26563;BME280;14217;50.986;5.826;2023-03-04T19:55:36;101690.03;;;16.24;41.53
26563;BME280;14217;50.986;5.826;2023-03-04T20:00:38;101692.66;;;16.26;41.18
26563;BME280;14217;50.986;5.826;2023-03-04T20:05:40;101694.13;;;16.39;41.71
26563;BME280;14217;50.986;5.826;2023-03-04T20:10:42;101687.41;;;16.23;42.06
26563;BME280;14217;50.986;5.826;2023-03-04T20:15:44;101689.22;;;16.21;43.43
26563;BME280;14217;50.986;5.826;2023-03-04T20:20:46;101683.03;;;16.23;44.47
26563;BME280;14217;50.986;5.826;2023-03-04T20:25:49;101677.75;;;16.22;44.16
26563;BME280;14217;50.986;5.826;2023-03-04T20:30:51;101681.03;;;16.33;43.82
26563;BME280;14217;50.986;5.826;2023-03-04T20:35:54;101676.59;;;16.34;43.54
26563;BME280;14217;50.986;5.826;2023-03-04T20:40:56;101671.19;;;16.40;43.76
26563;BME280;14217;50.986;5.826;2023-03-04T20:51:29;101682.47;;;16.48;43.72
26563;BME280;14217;50.986;5.826;2023-03-04T20:56:32;101689.56;;;16.46;43.35
26563;BME280;14217;50.986;5.826;2023-03-04T21:01:39;101691.06;;;16.58;43.54
26563;BME280;14217;50.986;5.826;2023-03-04T21:06:42;101683.38;;;16.49;43.78
26563;BME280;14217;50.986;5.826;2023-03-04T21:11:44;101686.72;;;16.55;43.78
26563;BME280;14217;50.986;5.826;2023-03-04T21:16:48;101679.69;;;16.54;43.11
26563;BME280;14217;50.986;5.826;2023-03-04T21:21:52;101680.41;;;16.61;42.61
26563;BME280;14217;50.986;5.826;2023-03-04T21:26:54;101681.59;;;16.48;42.32
26563;BME280;14217;50.986;5.826;2023-03-04T21:32:03;101675.31;;;16.53;41.70
26563;BME280;14217;50.986;5.826;2023-03-04T21:37:24;101669.31;;;16.46;41.56
26563;BME280;14217;50.986;5.826;2023-03-04T21:42:27;101667.31;;;16.55;40.99
26563;BME280;14217;50.986;5.826;2023-03-04T21:47:29;101655.41;;;16.74;40.26
26563;BME280;14217;50.986;5.826;2023-03-04T21:52:31;101660.88;;;16.66;40.12
26563;BME280;14217;50.986;5.826;2023-03-04T21:57:33;101658.47;;;16.57;40.05
26563;BME280;14217;50.986;5.826;2023-03-04T22:02:35;101663.13;;;16.46;40.85
26563;BME280;14217;50.986;5.826;2023-03-04T22:07:37;101649.97;;;16.43;41.27
26563;BME280;14217;50.986;5.826;2023-03-04T22:12:39;101651.44;;;16.55;41.10
26563;BME280;14217;50.986;5.826;2023-03-04T22:17:41;101646.84;;;16.63;40.90
26563;BME280;14217;50.986;5.826;2023-03-04T22:22:46;101645.72;;;16.73;40.65
26563;BME280;14217;50.986;5.826;2023-03-04T22:27:48;101642.34;;;16.68;40.64
26563;BME280;14217;50.986;5.826;2023-03-04T22:32:50;101643.03;;;16.76;40.08
26563;BME280;14217;50.986;5.826;2023-03-04T22:37:52;101637.88;;;16.70;40.11
26563;BME280;14217;50.986;5.826;2023-03-04T22:42:54;101634.31;;;16.71;40.21
26563;BME280;14217;50.986;5.826;2023-03-04T22:47:56;101629.69;;;16.81;39.81
26563;BME280;14217;50.986;5.826;2023-03-04T22:52:58;101637.72;;;16.76;39.81
26563;BME280;14217;50.986;5.826;2023-03-04T22:58:01;101629.56;;;16.87;39.71
26563;BME280;14217;50.986;5.826;2023-03-04T23:03:04;101624.25;;;16.87;39.51
26563;BME280;14217;50.986;5.826;2023-03-04T23:08:07;101624.09;;;16.93;39.43
26563;BME280;14217;50.986;5.826;2023-03-04T23:13:09;101621.34;;;16.98;39.07
26563;BME280;14217;50.986;5.826;2023-03-04T23:18:11;101622.34;;;16.92;39.34
26563;BME280;14217;50.986;5.826;2023-03-04T23:23:13;101623.16;;;16.96;38.99
26563;BME280;14217;50.986;5.826;2023-03-04T23:28:15;101623.06;;;16.99;39.37
26563;BME280;14217;50.986;5.826;2023-03-04T23:33:17;101617.75;;;16.99;38.81
26563;BME280;14217;50.986;5.826;2023-03-04T23:38:19;101610.56;;;17.05;39.01
26563;BME280;14217;50.986;5.826;2023-03-04T23:43:21;101603.63;;;17.00;38.88
26563;BME280;14217;50.986;5.826;2023-03-04T23:48:23;101599.78;;;17.12;38.54
26563;BME280;14217;50.986;5.826;2023-03-04T23:53:26;101602.22;;;17.19;38.41
26563;BME280;14217;50.986;5.826;2023-03-04T23:58:28;101591.00;;;17.10;38.70
